createdAt,value
2019-05-10T00:01:26.021Z,27.27
2019-05-10T00:04:16.003Z,29.85
2019-05-10T00:07:05.475Z,26.48
2019-05-10T00:09:36.412Z,24.92
2019-05-10T00:12:15.754Z,18.87
2019-05-10T00:14:49.045Z,17.98
2019-05-10T00:17:20.815Z,15.45
2019-05-10T00:19:52.764Z,16.80
2019-05-10T00:22:24.417Z,17.27
2019-05-10T00:25:03.732Z,18.00
2019-05-10T00:27:29.675Z,21.05
2019-05-10T00:30:01.328Z,18.40
2019-05-10T00:32:34.427Z,18.52
2019-05-10T00:35:06.945Z,21.40
2019-05-10T00:37:38.244Z,19.20
2019-05-10T00:40:09.634Z,20.30
2019-05-10T00:42:40.937Z,20.45
2019-05-10T00:45:12.387Z,20.52
2019-05-10T00:47:43.738Z,21.70
2019-05-10T00:50:15.501Z,21.30
2019-05-10T00:52:47.355Z,17.42
2019-05-10T00:55:19.603Z,17.25
2019-05-10T00:57:51.176Z,15.58
2019-05-10T01:00:23.032Z,19.87
2019-05-10T01:02:54.636Z,19.57
2019-05-10T01:05:26.220Z,18.73
2019-05-10T01:07:57.606Z,19.62
2019-05-10T01:10:29.357Z,20.30
2019-05-10T01:13:01.007Z,17.30
2019-05-10T01:15:32.567Z,15.38
2019-05-10T01:18:03.947Z,17.62
2019-05-10T01:20:35.362Z,20.43
2019-05-10T01:23:07.731Z,13.78
2019-05-10T01:25:39.391Z,14.23
2019-05-10T01:28:10.948Z,19.37
2019-05-10T01:30:43.037Z,14.65
2019-05-10T01:33:14.870Z,12.53
2019-05-10T01:35:46.428Z,12.25
2019-05-10T01:38:18.078Z,14.50
2019-05-10T01:40:49.832Z,13.05
2019-05-10T01:43:21.689Z,16.40
2019-05-10T01:45:53.445Z,13.80
2019-05-10T01:48:24.800Z,14.38
2019-05-10T01:50:56.238Z,15.63
2019-05-10T01:53:28.591Z,15.93
2019-05-10T01:55:59.951Z,12.93
2019-05-10T01:58:31.223Z,12.70
2019-05-10T02:01:02.663Z,15.40
2019-05-10T02:03:34.116Z,15.90
2019-05-10T02:06:06.277Z,15.55
2019-05-10T02:08:37.838Z,13.20
2019-05-10T02:11:09.660Z,29.67
2019-05-10T02:13:40.994Z,20.52
2019-05-10T02:16:12.495Z,14.83
2019-05-10T02:18:43.805Z,13.95
2019-05-10T02:21:17.758Z,16.77
2019-05-10T02:23:49.048Z,13.30
2019-05-10T02:26:20.404Z,14.63
2019-05-10T02:28:51.716Z,15.83
2019-05-10T02:31:23.255Z,17.23
2019-05-10T02:33:55.003Z,17.05
2019-05-10T02:36:26.551Z,14.55
2019-05-10T02:38:58.206Z,14.38
2019-05-10T02:41:30.984Z,12.83
2019-05-10T02:44:02.745Z,14.93
2019-05-10T02:46:36.140Z,15.75
2019-05-10T02:49:07.421Z,12.50
2019-05-10T02:51:38.841Z,10.95
2019-05-10T02:54:10.316Z,15.13
2019-05-10T02:56:41.951Z,13.62
2019-05-10T02:59:13.812Z,15.50
2019-05-10T03:01:46.277Z,19.70
2019-05-10T03:04:18.240Z,15.18
2019-05-10T03:06:49.895Z,15.85
2019-05-10T03:09:21.459Z,14.68
2019-05-10T03:11:53.211Z,15.10
2019-05-10T03:14:24.972Z,18.95
2019-05-10T03:16:56.412Z,19.30
2019-05-10T03:19:27.786Z,19.17
2019-05-10T03:22:06.923Z,22.55
2019-05-10T03:24:38.661Z,22.02
2019-05-10T03:27:10.367Z,21.12
2019-05-10T03:29:41.695Z,20.45
2019-05-10T03:32:13.015Z,18.95
2019-05-10T03:34:44.406Z,21.82
2019-05-10T03:37:15.915Z,23.12
2019-05-10T03:39:47.196Z,21.68
2019-05-10T03:42:18.617Z,20.12
2019-05-10T03:44:49.983Z,21.37
2019-05-10T03:47:21.369Z,17.05
2019-05-10T03:49:52.777Z,20.05
2019-05-10T03:52:24.160Z,17.85
2019-05-10T03:54:55.482Z,18.52
2019-05-10T03:57:28.185Z,16.85
2019-05-10T03:59:59.633Z,15.93
2019-05-10T04:02:31.181Z,15.95
2019-05-10T04:05:02.975Z,16.70
2019-05-10T04:07:34.529Z,18.80
2019-05-10T04:10:06.479Z,14.83
2019-05-10T04:12:37.996Z,16.85
2019-05-10T04:15:09.461Z,15.30
2019-05-10T04:20:13.712Z,23.40
2019-05-10T04:22:45.388Z,16.48
2019-05-10T04:25:18.983Z,19.05
2019-05-10T04:27:53.907Z,18.50
2019-05-10T04:30:25.358Z,16.48
2019-05-10T04:32:56.853Z,13.50
2019-05-10T04:35:28.196Z,15.80
2019-05-10T04:37:59.961Z,14.33
2019-05-10T04:40:31.411Z,19.00
2019-05-10T04:43:02.869Z,22.60
2019-05-10T04:45:34.252Z,24.15
2019-05-10T04:48:05.659Z,15.40
2019-05-10T04:50:37.142Z,18.75
2019-05-10T04:53:08.933Z,19.10
2019-05-10T04:55:40.431Z,18.00
2019-05-10T04:58:12.116Z,17.07
2019-05-10T05:00:43.627Z,19.10
2019-05-10T05:03:15.338Z,19.65
2019-05-10T05:05:47.220Z,21.10
2019-05-10T05:08:18.989Z,17.40
2019-05-10T05:10:50.408Z,19.20
2019-05-10T05:13:22.045Z,21.10
2019-05-10T05:15:54.541Z,22.32
2019-05-10T05:18:26.238Z,31.42
2019-05-10T05:20:58.083Z,22.75
2019-05-10T05:23:29.680Z,21.37
2019-05-10T05:26:01.165Z,24.70
2019-05-10T05:28:32.713Z,23.52
2019-05-10T05:31:04.171Z,18.20
2019-05-10T05:33:35.708Z,21.35
2019-05-10T05:36:07.265Z,21.82
2019-05-10T05:38:40.649Z,22.40
2019-05-10T05:41:12.007Z,20.97
2019-05-10T05:43:46.364Z,22.48
2019-05-10T05:46:17.768Z,21.33
2019-05-10T05:48:51.419Z,22.95
2019-05-10T05:51:22.595Z,22.37
2019-05-10T05:53:54.441Z,25.97
2019-05-10T05:56:25.829Z,21.15
2019-05-10T05:58:57.296Z,24.82
2019-05-10T06:01:29.571Z,20.62
2019-05-10T06:04:06.302Z,22.65
2019-05-10T06:06:36.652Z,22.93
2019-05-10T06:09:08.600Z,31.50
2019-05-10T06:11:40.128Z,23.15
2019-05-10T06:14:12.843Z,23.27
2019-05-10T06:16:50.409Z,22.22
2019-05-10T06:19:20.475Z,23.40
2019-05-10T06:21:51.215Z,33.00
2019-05-10T06:24:22.680Z,25.65
2019-05-10T06:26:58.214Z,21.17
2019-05-10T06:29:27.394Z,25.52
2019-05-10T06:31:59.116Z,19.95
2019-05-10T06:34:37.942Z,17.50
2019-05-10T06:37:04.750Z,15.72
2019-05-10T06:39:37.295Z,18.35
2019-05-10T06:42:08.700Z,16.75
2019-05-10T06:44:40.321Z,18.65
2019-05-10T06:47:11.726Z,15.15
2019-05-10T06:49:50.764Z,12.82
2019-05-10T06:52:21.761Z,15.53
2019-05-10T06:54:52.139Z,17.85
2019-05-10T06:57:23.483Z,18.27
2019-05-10T06:59:57.020Z,15.68
2019-05-10T07:02:32.318Z,13.22
2019-05-10T07:05:01.270Z,14.00
2019-05-10T07:07:43.983Z,15.50
2019-05-10T07:10:15.712Z,16.55
2019-05-10T07:12:40.960Z,15.20
2019-05-10T07:15:12.478Z,21.25
2019-05-10T07:17:47.164Z,11.22
2019-05-10T07:20:17.294Z,12.95
2019-05-10T07:22:48.692Z,15.65
2019-05-10T07:25:20.261Z,11.18
2019-05-10T07:27:52.063Z,13.88
2019-05-10T07:30:32.161Z,11.83
2019-05-10T07:33:03.507Z,14.53
2019-05-10T07:35:36.736Z,9.83
2019-05-10T07:38:08.229Z,7.53
2019-05-10T07:40:39.594Z,7.60
2019-05-10T07:43:10.876Z,18.75
2019-05-10T07:45:42.412Z,10.60
2019-05-10T07:48:13.810Z,13.88
2019-05-10T07:50:49.134Z,10.55
2019-05-10T07:53:22.768Z,10.80
2019-05-10T07:55:51.930Z,13.78
2019-05-10T07:58:23.320Z,12.35
2019-05-10T08:00:56.160Z,11.73
2019-05-10T08:06:03.393Z,9.35
2019-05-10T08:08:34.876Z,12.88
2019-05-10T08:11:08.645Z,14.05
2019-05-10T08:13:40.177Z,10.03
2019-05-10T08:16:18.950Z,10.82
2019-05-10T08:18:44.785Z,8.65
2019-05-10T08:21:23.940Z,20.48
2019-05-10T08:26:24.581Z,10.65
2019-05-10T08:31:26.339Z,9.83
2019-05-10T08:33:59.043Z,12.90
2019-05-10T08:36:32.231Z,9.70
2019-05-10T08:39:10.442Z,12.58
2019-05-10T08:41:38.639Z,12.78
2019-05-10T08:44:16.605Z,17.70
2019-05-10T08:46:44.400Z,30.00
2019-05-10T08:49:22.115Z,20.72
2019-05-10T08:51:52.056Z,16.00
2019-05-10T08:57:01.977Z,14.73
2019-05-10T08:59:30.866Z,11.68
2019-05-10T09:02:05.153Z,9.98
2019-05-10T09:04:43.630Z,26.93
2019-05-10T09:07:11.866Z,14.23
2019-05-10T09:09:49.758Z,9.63
2019-05-10T09:12:18.690Z,8.78
2019-05-10T09:14:57.509Z,13.78
2019-05-10T09:17:28.223Z,15.75
2019-05-10T09:19:58.492Z,27.40
2019-05-10T09:22:33.938Z,14.05
2019-05-10T09:25:06.911Z,80.28
2019-05-10T09:27:39.026Z,40.58
2019-05-10T09:30:14.073Z,31.70
2019-05-10T09:32:45.043Z,20.62
2019-05-10T09:35:17.182Z,18.67
2019-05-10T09:37:56.728Z,18.80
2019-05-10T09:40:22.390Z,23.60
2019-05-10T09:42:54.260Z,26.40
2019-05-10T09:45:25.734Z,21.62
2019-05-10T09:47:57.309Z,26.12
2019-05-10T09:50:30.470Z,24.23
2019-05-10T09:53:02.143Z,15.63
2019-05-10T09:55:33.610Z,19.27
2019-05-10T09:58:05.335Z,16.93
2019-05-10T10:00:37.973Z,16.17
2019-05-10T10:03:12.745Z,20.35
2019-05-10T10:05:48.064Z,21.00
2019-05-10T10:08:18.852Z,12.98
2019-05-10T10:10:50.695Z,11.73
2019-05-10T10:13:38.924Z,26.45
2019-05-10T10:15:57.978Z,22.00
2019-05-10T10:18:29.014Z,15.68
2019-05-10T10:23:37.234Z,16.97
2019-05-10T10:26:07.541Z,14.87
2019-05-10T10:28:39.846Z,14.20
2019-05-10T10:31:26.004Z,47.08
2019-05-10T10:33:56.947Z,35.63
2019-05-10T10:36:20.037Z,19.92
2019-05-10T10:38:51.715Z,17.15
2019-05-10T10:41:31.304Z,16.27
2019-05-10T10:43:58.306Z,15.65
2019-05-10T10:46:29.556Z,13.15
2019-05-10T10:49:01.093Z,23.32
2019-05-10T10:51:34.538Z,23.25
2019-05-10T10:54:07.417Z,16.87
2019-05-10T10:56:39.124Z,13.03
2019-05-10T10:59:10.620Z,9.85
2019-05-10T11:01:50.007Z,11.12
2019-05-10T11:04:16.414Z,14.87
2019-05-10T11:06:48.026Z,12.23
2019-05-10T11:09:20.692Z,8.75
2019-05-10T11:11:52.293Z,7.87
2019-05-10T11:14:23.883Z,12.53
2019-05-10T11:16:57.110Z,8.78
2019-05-10T11:19:28.969Z,12.10
2019-05-10T11:22:02.231Z,9.98
2019-05-10T11:24:33.855Z,7.35
2019-05-10T11:27:07.191Z,10.70
2019-05-10T11:29:38.480Z,12.37
2019-05-10T11:32:15.779Z,9.75
2019-05-10T11:34:42.996Z,11.48
2019-05-10T11:37:16.149Z,7.80
2019-05-10T11:39:47.878Z,8.40
2019-05-10T11:44:54.565Z,17.05
2019-05-10T11:47:27.309Z,11.73
2019-05-10T11:50:05.808Z,9.30
2019-05-10T11:52:34.740Z,7.55
2019-05-10T11:55:05.365Z,10.98
2019-05-10T11:57:43.255Z,13.10
2019-05-10T12:00:24.288Z,14.43
2019-05-10T12:05:20.529Z,8.65
2019-05-10T12:07:54.141Z,11.65
2019-05-10T12:10:25.532Z,10.30
2019-05-10T12:13:08.620Z,13.60
2019-05-10T12:18:04.714Z,11.25
2019-05-10T12:23:13.386Z,5.78
2019-05-10T12:25:53.131Z,8.83
2019-05-10T12:26:18.021Z,8.28
2019-05-10T12:26:18.785Z,6.10
2019-05-10T12:28:15.430Z,8.55
2019-05-10T12:30:47.548Z,10.25
2019-05-10T12:33:25.098Z,8.33
2019-05-10T12:35:52.277Z,6.75
2019-05-10T12:38:29.158Z,8.90
2019-05-10T12:40:56.808Z,5.78
2019-05-10T12:43:28.214Z,11.97
2019-05-10T12:46:00.041Z,13.30
2019-05-10T12:48:32.781Z,10.80
2019-05-10T12:51:11.558Z,17.32
2019-05-10T12:56:10.685Z,9.55
2019-05-10T12:58:41.966Z,10.03
2019-05-10T13:01:13.378Z,13.40
2019-05-10T13:03:46.413Z,10.80
2019-05-10T13:06:19.791Z,19.85
2019-05-10T13:08:51.047Z,7.45
2019-05-10T13:11:25.494Z,6.00
2019-05-10T13:14:01.077Z,14.78
2019-05-10T13:19:00.114Z,4.78
2019-05-10T13:21:31.547Z,8.83
2019-05-10T13:24:02.796Z,22.77
2019-05-10T13:26:34.296Z,7.78
2019-05-10T13:29:08.159Z,6.47
2019-05-10T13:31:42.696Z,9.33
2019-05-10T13:34:11.875Z,5.05
2019-05-10T13:36:43.482Z,5.35
2019-05-10T13:39:19.055Z,9.58
2019-05-10T13:41:49.123Z,3.98
2019-05-10T13:44:20.719Z,8.30
2019-05-10T13:46:52.587Z,5.28
2019-05-10T13:49:23.905Z,6.53
2019-05-10T13:51:55.580Z,5.85
2019-05-10T13:54:31.292Z,11.05
2019-05-10T13:57:00.749Z,11.35
2019-05-10T13:59:32.851Z,10.13
2019-05-10T14:02:05.436Z,16.87
2019-05-10T14:04:38.743Z,7.92
2019-05-10T14:07:10.249Z,10.55
2019-05-10T14:09:41.971Z,15.38
2019-05-10T14:12:16.320Z,14.35
2019-05-10T14:17:19.717Z,5.55
2019-05-10T14:19:51.020Z,6.72
2019-05-10T14:22:22.711Z,7.03
2019-05-10T14:24:58.870Z,15.95
2019-05-10T14:27:29.874Z,19.45
2019-05-10T14:30:00.407Z,28.95
2019-05-10T14:32:32.030Z,33.95
2019-05-10T14:35:04.168Z,9.03
2019-05-10T14:37:36.700Z,11.10
2019-05-10T14:40:08.316Z,15.03
2019-05-10T14:42:39.918Z,5.05
2019-05-10T14:45:11.282Z,5.60
2019-05-10T14:47:48.279Z,5.37
2019-05-10T14:50:19.400Z,8.00
2019-05-10T14:52:50.749Z,7.28
2019-05-10T14:55:22.518Z,6.78
2019-05-10T14:57:54.419Z,10.25
2019-05-10T15:00:26.113Z,10.28
2019-05-10T15:03:02.148Z,10.23
2019-05-10T15:05:30.767Z,9.10
2019-05-10T15:08:03.207Z,16.20
2019-05-10T15:10:39.435Z,9.83
2019-05-10T15:13:08.117Z,11.48
2019-05-10T15:15:39.826Z,12.00
2019-05-10T15:18:12.198Z,20.57
2019-05-10T15:20:43.658Z,11.03
2019-05-10T15:23:15.218Z,8.83
2019-05-10T15:25:56.479Z,8.08
2019-05-10T15:28:19.717Z,10.72
2019-05-10T15:30:52.625Z,7.83
2019-05-10T15:33:24.367Z,11.75
2019-05-10T15:35:55.848Z,14.55
2019-05-10T15:38:27.402Z,9.45
2019-05-10T15:40:58.925Z,14.20
2019-05-10T15:43:30.942Z,16.52
2019-05-10T15:46:02.586Z,20.43
2019-05-10T15:48:36.649Z,10.18
2019-05-10T15:51:11.354Z,8.43
2019-05-10T15:53:41.038Z,10.55
2019-05-10T15:56:13.895Z,14.25
2019-05-10T15:58:46.460Z,8.60
2019-05-10T16:01:26.321Z,12.88
2019-05-10T16:03:51.311Z,7.83
2019-05-10T16:06:22.769Z,15.95
2019-05-10T16:08:54.738Z,27.45
2019-05-10T16:11:30.136Z,13.08
2019-05-10T16:14:02.046Z,26.90
2019-05-10T16:16:39.668Z,19.57
2019-05-10T16:19:13.047Z,15.23
2019-05-10T16:24:25.553Z,19.60
2019-05-10T16:26:57.975Z,16.80
2019-05-10T16:29:25.139Z,22.48
2019-05-10T16:31:57.541Z,25.02
2019-05-10T16:34:32.440Z,18.48
2019-05-10T16:37:05.097Z,24.65
2019-05-10T16:39:38.782Z,23.73
2019-05-10T16:42:11.140Z,17.17
2019-05-10T16:44:43.597Z,18.87
2019-05-10T16:47:15.833Z,21.25
2019-05-10T16:49:53.378Z,23.92
2019-05-10T16:52:28.507Z,20.23
2019-05-10T16:55:03.818Z,26.00
2019-05-10T16:57:39.712Z,22.73
2019-05-10T17:00:12.721Z,23.60
2019-05-10T17:02:44.484Z,22.83
2019-05-10T17:05:17.429Z,21.77
2019-05-10T17:07:53.653Z,20.80
2019-05-10T17:10:26.983Z,21.75
2019-05-10T17:12:59.603Z,27.75
2019-05-10T17:15:33.901Z,26.93
2019-05-10T17:18:10.427Z,37.15
2019-05-10T17:20:40.206Z,27.55
2019-05-10T17:23:11.679Z,31.02
2019-05-10T17:25:43.702Z,39.53
2019-05-10T17:28:15.282Z,24.67
2019-05-10T17:30:47.121Z,31.07
2019-05-10T17:33:18.842Z,25.65
2019-05-10T17:35:51.359Z,25.70
2019-05-10T17:38:24.111Z,31.52
2019-05-10T17:40:56.843Z,28.77
2019-05-10T17:43:36.983Z,30.08
2019-05-10T17:46:12.831Z,22.17
2019-05-10T17:48:49.399Z,27.90
2019-05-10T17:51:20.745Z,30.00
2019-05-10T17:53:54.986Z,29.55
2019-05-10T17:56:25.917Z,26.42
2019-05-10T17:58:57.359Z,29.95
2019-05-10T18:01:28.971Z,23.05
2019-05-10T18:04:00.674Z,32.42
2019-05-10T18:06:32.804Z,31.55
2019-05-10T18:09:06.945Z,42.27
2019-05-10T18:11:42.792Z,33.80
2019-05-10T18:14:12.442Z,36.23
2019-05-10T18:16:48.305Z,47.65
2019-05-10T18:19:24.217Z,35.45
2019-05-10T18:21:54.873Z,45.05
2019-05-10T18:24:30.047Z,39.13
2019-05-10T18:27:03.086Z,41.63
2019-05-10T18:29:34.612Z,39.53
2019-05-10T18:32:11.026Z,34.95
2019-05-10T18:34:42.252Z,31.82
2019-05-10T18:37:19.766Z,39.40
2019-05-10T18:39:52.873Z,32.23
2019-05-10T18:42:25.659Z,33.18
2019-05-10T18:44:55.013Z,35.98
2019-05-10T18:47:26.714Z,38.88
2019-05-10T18:49:58.096Z,37.10
2019-05-10T18:52:29.979Z,37.75
2019-05-10T18:55:07.905Z,27.75
2019-05-10T18:57:39.530Z,129.23
2019-05-10T19:00:11.708Z,30.75
2019-05-10T19:02:43.333Z,31.50
2019-05-10T19:05:15.203Z,24.18
2019-05-10T19:07:46.845Z,25.92
2019-05-10T19:10:18.822Z,24.82
2019-05-10T19:12:59.917Z,29.55
2019-05-10T19:21:25.007Z,21.48
2019-05-10T19:23:56.139Z,34.88
2019-05-10T19:26:29.462Z,31.02
2019-05-10T19:29:05.332Z,25.88
2019-05-10T19:31:40.400Z,24.57
2019-05-10T19:34:15.291Z,26.73
2019-05-10T19:36:44.356Z,26.80
2019-05-10T19:39:16.003Z,24.20
2019-05-10T19:41:47.856Z,27.00
2019-05-10T19:44:19.823Z,31.48
2019-05-10T19:46:51.467Z,56.00
2019-05-10T19:49:23.304Z,44.53
2019-05-10T19:51:54.794Z,42.08
2019-05-10T19:54:26.635Z,52.05
2019-05-10T19:56:58.298Z,46.08
2019-05-10T19:59:29.953Z,54.88
2019-05-10T20:02:01.613Z,48.98
2019-05-10T20:04:33.465Z,59.48
2019-05-10T20:07:05.136Z,44.13
2019-05-10T20:09:37.082Z,47.25
2019-05-10T20:12:08.738Z,53.17
2019-05-10T20:14:40.723Z,45.55
2019-05-10T20:17:12.450Z,46.70
2019-05-10T20:19:44.317Z,54.85
2019-05-10T20:22:16.706Z,54.50
2019-05-10T20:24:48.558Z,82.27
2019-05-10T20:27:20.447Z,97.22
2019-05-10T20:29:52.473Z,72.67
2019-05-10T20:32:25.257Z,96.32
2019-05-10T20:34:57.028Z,76.40
2019-05-10T20:37:28.560Z,55.30
2019-05-10T20:40:00.526Z,58.38
2019-05-10T20:42:32.398Z,53.90
2019-05-10T20:45:08.060Z,54.33
2019-05-10T20:47:38.774Z,47.58
2019-05-10T20:50:10.991Z,37.67
2019-05-10T20:52:42.502Z,35.73
2019-05-10T20:55:14.285Z,36.75
2019-05-10T20:57:45.910Z,34.75
2019-05-10T21:00:17.666Z,37.00
2019-05-10T21:02:49.016Z,32.98
2019-05-10T21:05:20.869Z,50.55
2019-05-10T21:07:52.222Z,51.55
2019-05-10T21:10:24.521Z,48.25
2019-05-10T21:12:55.915Z,49.90
2019-05-10T21:15:27.700Z,42.00
2019-05-10T21:17:59.472Z,49.03
2019-05-10T21:20:31.322Z,51.42
2019-05-10T21:23:03.281Z,55.43
2019-05-10T21:25:34.937Z,64.22
2019-05-10T21:28:06.591Z,71.92
2019-05-10T21:30:38.454Z,65.42
2019-05-10T21:33:10.213Z,78.25
2019-05-10T21:35:41.867Z,68.92
2019-05-10T21:38:13.517Z,56.37
2019-05-10T21:40:45.268Z,65.40
2019-05-10T21:43:16.822Z,58.60
2019-05-10T21:45:48.689Z,58.58
2019-05-10T21:48:20.545Z,48.95
2019-05-10T21:50:52.200Z,48.68
2019-05-10T21:53:23.863Z,48.75
2019-05-10T21:55:55.929Z,36.55
2019-05-10T21:58:27.687Z,33.53
2019-05-10T22:00:59.336Z,33.45
2019-05-10T22:03:31.807Z,29.52
2019-05-10T22:06:03.360Z,24.47
2019-05-10T22:08:48.452Z,32.45
2019-05-10T22:11:08.724Z,26.17
2019-05-10T22:13:40.371Z,23.18
2019-05-10T22:16:12.238Z,23.15
2019-05-10T22:18:43.784Z,33.53
2019-05-10T22:21:15.445Z,28.40
2019-05-10T22:23:47.305Z,33.92
2019-05-10T22:26:18.963Z,29.77
2019-05-10T22:28:50.721Z,37.83
2019-05-10T22:31:22.468Z,42.60
2019-05-10T22:33:53.928Z,45.55
2019-05-10T22:36:25.888Z,46.95
2019-05-10T22:39:06.543Z,51.80
2019-05-10T22:41:31.350Z,50.78
2019-05-10T22:44:03.502Z,49.75
2019-05-10T22:46:35.071Z,46.00
2019-05-10T22:49:06.413Z,51.77
2019-05-10T22:51:37.969Z,52.70
2019-05-10T22:54:09.623Z,49.85
2019-05-10T22:56:41.590Z,48.78
2019-05-10T22:59:13.043Z,51.05
2019-05-10T23:01:44.803Z,46.77
2019-05-10T23:04:16.658Z,50.73
2019-05-10T23:06:48.206Z,48.33
2019-05-10T23:09:24.803Z,57.17
2019-05-10T23:11:52.849Z,53.15
2019-05-10T23:14:24.400Z,64.80
2019-05-10T23:16:56.361Z,52.73
2019-05-10T23:19:27.813Z,50.45
2019-05-10T23:21:59.567Z,53.38
2019-05-10T23:24:38.910Z,52.67
2019-05-10T23:27:10.703Z,48.68
2019-05-10T23:29:42.222Z,55.00
2019-05-10T23:32:13.874Z,52.25
2019-05-10T23:34:45.537Z,53.68
2019-05-10T23:37:17.594Z,50.17
2019-05-10T23:39:49.354Z,48.68
2019-05-10T23:42:21.109Z,44.75
2019-05-10T23:44:52.801Z,41.48
2019-05-10T23:47:24.936Z,39.50
2019-05-10T23:49:56.793Z,38.50
2019-05-10T23:52:28.548Z,39.20
2019-05-10T23:54:59.997Z,37.85
2019-05-10T23:57:31.557Z,36.85
